createdAt,value
2023-05-20T00:01:59.245Z,2.05
2023-05-20T00:04:26.600Z,1.75
2023-05-20T00:06:54.877Z,2.20
2023-05-20T00:09:22.275Z,1.80
2023-05-20T00:11:49.603Z,1.63
2023-05-20T00:14:16.898Z,2.03
2023-05-20T00:16:44.328Z,1.80
2023-05-20T00:19:11.652Z,1.85
2023-05-20T00:21:38.933Z,1.75
2023-05-20T00:24:06.437Z,1.80
2023-05-20T00:26:33.749Z,1.80
2023-05-20T00:29:01.194Z,1.85
2023-05-20T00:31:28.506Z,1.92
2023-05-20T00:33:55.850Z,1.70
2023-05-20T00:36:23.176Z,1.63
2023-05-20T00:38:50.828Z,1.75
2023-05-20T00:41:18.147Z,1.60
2023-05-20T00:43:45.467Z,1.80
2023-05-20T00:46:13.652Z,1.73
2023-05-20T00:48:43.291Z,1.52
2023-05-20T00:51:12.975Z,1.70
2023-05-20T00:53:41.473Z,1.55
2023-05-20T00:56:09.463Z,1.70
2023-05-20T00:58:37.955Z,1.63
2023-05-20T01:01:06.748Z,1.55
2023-05-20T01:03:34.855Z,1.63
2023-05-20T01:06:02.685Z,1.90
2023-05-20T01:08:30.187Z,1.90
2023-05-20T01:11:09.097Z,1.55
2023-05-20T01:13:47.701Z,1.80
2023-05-20T01:16:18.168Z,1.95
2023-05-20T01:18:48.734Z,1.63
2023-05-20T01:21:17.347Z,1.58
2023-05-20T01:23:44.695Z,1.80
2023-05-20T01:26:14.814Z,1.50
2023-05-20T01:28:45.950Z,1.70
2023-05-20T01:31:24.723Z,1.50
2023-05-20T01:33:55.848Z,1.80
2023-05-20T01:36:23.948Z,1.63
2023-05-20T01:38:53.217Z,1.60
2023-05-20T01:41:22.006Z,1.70
2023-05-20T01:43:49.935Z,1.75
2023-05-20T01:46:17.467Z,1.73
2023-05-20T01:48:44.831Z,1.52
2023-05-20T01:51:12.280Z,1.60
2023-05-20T01:53:39.600Z,1.73
2023-05-20T01:56:07.008Z,1.65
2023-05-20T01:58:34.445Z,1.73
2023-05-20T02:01:03.752Z,1.80
2023-05-20T02:03:31.181Z,1.80
2023-05-20T02:05:58.508Z,1.88
2023-05-20T02:08:25.902Z,1.65
2023-05-20T02:10:53.204Z,1.80
2023-05-20T02:13:20.621Z,1.80
2023-05-20T02:15:48.095Z,1.60
2023-05-20T02:18:18.658Z,1.77
2023-05-20T02:20:46.698Z,1.83
2023-05-20T02:23:14.064Z,1.77
2023-05-20T02:25:41.927Z,1.77
2023-05-20T02:28:10.787Z,1.88
2023-05-20T02:30:41.038Z,1.73
2023-05-20T02:33:09.820Z,1.70
2023-05-20T02:35:37.476Z,1.67
2023-05-20T02:38:04.974Z,1.90
2023-05-20T02:40:32.570Z,1.67
2023-05-20T02:43:01.846Z,2.05
2023-05-20T02:45:29.299Z,1.40
2023-05-20T02:47:56.646Z,1.70
2023-05-20T02:50:23.947Z,2.10
2023-05-20T02:52:51.241Z,1.60
2023-05-20T02:55:18.684Z,1.88
2023-05-20T02:57:46.009Z,1.65
2023-05-20T03:00:13.724Z,1.70
2023-05-20T03:02:41.178Z,1.80
2023-05-20T03:05:09.363Z,1.75
2023-05-20T03:07:37.321Z,1.70
2023-05-20T03:10:06.478Z,1.65
2023-05-20T03:12:33.802Z,1.75
2023-05-20T03:15:01.231Z,1.80
2023-05-20T03:17:28.684Z,1.70
2023-05-20T03:19:56.175Z,1.60
2023-05-20T03:22:23.549Z,1.80
2023-05-20T03:24:52.814Z,1.80
2023-05-20T03:27:21.380Z,1.50
2023-05-20T03:29:48.905Z,1.60
2023-05-20T03:32:16.716Z,1.90
2023-05-20T03:34:44.107Z,1.70
2023-05-20T03:37:11.414Z,1.80
2023-05-20T03:39:38.732Z,1.90
2023-05-20T03:42:06.214Z,1.98
2023-05-20T03:44:33.490Z,1.90
2023-05-20T03:47:00.989Z,1.70
2023-05-20T03:49:28.397Z,2.00
2023-05-20T03:51:55.746Z,1.90
2023-05-20T03:54:23.119Z,1.75
2023-05-20T03:56:51.992Z,1.70
2023-05-20T03:59:19.890Z,1.90
2023-05-20T04:01:47.237Z,1.80
2023-05-20T04:04:14.790Z,2.13
2023-05-20T04:06:42.286Z,1.63
2023-05-20T04:09:09.653Z,1.85
2023-05-20T04:11:36.970Z,1.73
2023-05-20T04:14:04.281Z,1.65
2023-05-20T04:16:31.716Z,2.00
2023-05-20T04:18:59.412Z,1.98
2023-05-20T04:21:27.308Z,1.58
2023-05-20T04:23:54.676Z,1.77
2023-05-20T04:26:22.727Z,1.63
2023-05-20T04:28:50.422Z,1.67
2023-05-20T04:31:18.745Z,1.55
2023-05-20T04:33:46.681Z,1.70
2023-05-20T04:36:16.276Z,1.77
2023-05-20T04:38:44.719Z,2.00
2023-05-20T04:41:12.164Z,1.60
2023-05-20T04:43:40.300Z,1.38
2023-05-20T04:46:07.947Z,1.50
2023-05-20T04:48:35.591Z,1.80
2023-05-20T04:51:03.256Z,1.80
2023-05-20T04:53:30.684Z,1.77
2023-05-20T04:55:58.132Z,1.65
2023-05-20T04:58:25.673Z,1.67
2023-05-20T05:00:53.565Z,1.73
2023-05-20T05:03:21.057Z,2.20
2023-05-20T05:05:48.501Z,1.60
2023-05-20T05:08:17.292Z,1.55
2023-05-20T05:10:46.571Z,1.70
2023-05-20T05:13:13.997Z,1.42
2023-05-20T05:15:41.366Z,1.75
2023-05-20T05:18:09.559Z,1.70
2023-05-20T05:20:37.133Z,1.60
2023-05-20T05:23:04.588Z,2.10
2023-05-20T05:25:32.702Z,1.73
2023-05-20T05:28:00.324Z,1.60
2023-05-20T05:30:28.176Z,1.70
2023-05-20T05:32:55.742Z,1.67
2023-05-20T05:35:23.086Z,1.75
2023-05-20T05:37:50.493Z,1.60
2023-05-20T05:40:17.952Z,1.98
2023-05-20T05:42:45.501Z,2.00
2023-05-20T05:45:12.803Z,1.55
2023-05-20T05:47:40.246Z,1.60
2023-05-20T05:50:07.958Z,1.80
2023-05-20T05:52:35.335Z,1.73
2023-05-20T05:55:03.386Z,1.70
2023-05-20T05:57:30.695Z,1.50
2023-05-20T05:59:58.056Z,1.75
2023-05-20T06:02:25.487Z,1.58
2023-05-20T06:04:52.929Z,1.75
2023-05-20T06:07:20.401Z,1.70
2023-05-20T06:09:47.722Z,1.70
2023-05-20T06:12:15.051Z,1.63
2023-05-20T06:14:42.324Z,1.60
2023-05-20T06:17:09.752Z,1.85
2023-05-20T06:19:37.120Z,1.58
2023-05-20T06:22:04.672Z,1.70
2023-05-20T06:24:32.900Z,1.83
2023-05-20T06:27:00.211Z,2.03
2023-05-20T06:29:27.507Z,1.77
2023-05-20T06:31:54.811Z,1.50
2023-05-20T06:34:22.160Z,1.50
2023-05-20T06:36:49.417Z,1.60
2023-05-20T06:39:16.706Z,1.98
2023-05-20T06:41:44.253Z,1.60
2023-05-20T06:44:11.594Z,1.50
2023-05-20T06:46:38.958Z,1.80
2023-05-20T06:49:06.414Z,1.60
2023-05-20T06:51:33.745Z,1.60
2023-05-20T06:54:01.111Z,1.52
2023-05-20T06:56:31.519Z,1.80
2023-05-20T06:58:58.881Z,1.60
2023-05-20T07:01:26.309Z,1.42
2023-05-20T07:03:53.700Z,1.70
2023-05-20T07:06:21.025Z,1.95
2023-05-20T07:08:48.398Z,1.75
2023-05-20T07:11:15.849Z,1.50
2023-05-20T07:13:43.278Z,1.50
2023-05-20T07:16:10.694Z,1.50
2023-05-20T07:18:38.024Z,1.40
2023-05-20T07:21:05.356Z,1.50
2023-05-20T07:23:32.713Z,1.73
2023-05-20T07:26:00.068Z,1.50
2023-05-20T07:28:27.434Z,1.40
2023-05-20T07:30:56.317Z,1.50
2023-05-20T07:33:23.854Z,1.63
2023-05-20T07:35:52.022Z,1.50
2023-05-20T07:38:19.421Z,1.60
2023-05-20T07:40:46.807Z,1.60
2023-05-20T07:43:14.561Z,1.60
2023-05-20T07:45:42.403Z,1.60
2023-05-20T07:48:10.927Z,1.50
2023-05-20T07:50:39.246Z,1.88
2023-05-20T07:53:06.965Z,1.60
2023-05-20T07:55:37.412Z,2.00
2023-05-20T07:58:05.109Z,1.45
2023-05-20T08:00:32.450Z,1.70
2023-05-20T08:03:00.013Z,1.50
2023-05-20T08:05:27.474Z,1.65
2023-05-20T08:07:54.878Z,2.10
2023-05-20T08:10:22.236Z,2.10
2023-05-20T08:12:49.577Z,1.80
2023-05-20T08:15:16.980Z,1.77
2023-05-20T08:17:44.379Z,1.85
2023-05-20T08:20:12.816Z,2.05
2023-05-20T08:22:40.349Z,2.00
2023-05-20T08:25:09.687Z,1.90
2023-05-20T08:27:37.541Z,1.92
2023-05-20T08:30:08.191Z,1.98
2023-05-20T08:32:35.941Z,1.88
2023-05-20T08:35:03.992Z,1.80
2023-05-20T08:37:31.620Z,2.90
2023-05-20T08:39:58.935Z,3.20
2023-05-20T08:42:26.977Z,3.03
2023-05-20T08:44:56.554Z,2.60
2023-05-20T08:47:24.022Z,2.97
2023-05-20T08:49:51.538Z,2.53
2023-05-20T08:52:21.515Z,2.40
2023-05-20T08:54:51.634Z,2.70
2023-05-20T08:57:20.379Z,2.45
2023-05-20T08:59:48.254Z,2.47
2023-05-20T09:02:15.814Z,2.75
2023-05-20T09:04:43.469Z,2.30
2023-05-20T09:07:10.894Z,2.55
2023-05-20T09:09:38.266Z,2.35
2023-05-20T09:12:05.922Z,2.58
2023-05-20T09:14:33.235Z,2.50
2023-05-20T09:17:00.742Z,2.30
2023-05-20T09:19:28.124Z,2.30
2023-05-20T09:21:56.217Z,2.20
2023-05-20T09:24:27.277Z,2.38
2023-05-20T09:26:54.678Z,2.30
2023-05-20T09:29:22.161Z,2.20
2023-05-20T09:31:50.623Z,2.65
2023-05-20T09:34:20.834Z,2.90
2023-05-20T09:36:51.128Z,2.80
2023-05-20T09:39:25.989Z,3.17
2023-05-20T09:42:03.980Z,3.20
2023-05-20T09:44:33.567Z,3.90
2023-05-20T09:47:02.522Z,4.32
2023-05-20T09:49:31.150Z,4.18
2023-05-20T09:51:59.924Z,4.53
2023-05-20T09:54:28.647Z,4.90
2023-05-20T09:56:57.467Z,4.57
2023-05-20T09:59:27.070Z,4.20
2023-05-20T10:01:54.472Z,5.10
2023-05-20T10:04:23.288Z,5.30
2023-05-20T10:07:20.958Z,5.35
2023-05-20T10:10:10.605Z,5.22
2023-05-20T10:13:01.273Z,5.93
2023-05-20T10:15:49.837Z,5.72
2023-05-20T10:18:52.039Z,6.25
2023-05-20T10:21:24.582Z,5.88
2023-05-20T10:23:52.698Z,5.82
2023-05-20T10:26:21.876Z,5.68
2023-05-20T10:28:49.939Z,5.47
2023-05-20T10:31:20.545Z,5.50
2023-05-20T10:33:48.934Z,5.20
2023-05-20T10:36:28.250Z,5.38
2023-05-20T10:38:58.513Z,5.57
2023-05-20T10:41:27.796Z,5.03
2023-05-20T10:44:05.923Z,5.35
2023-05-20T10:46:48.310Z,4.60
2023-05-20T10:49:25.164Z,4.28
2023-05-20T10:51:55.596Z,4.60
2023-05-20T10:54:23.378Z,4.20
2023-05-20T10:56:55.369Z,4.43
2023-05-20T10:59:23.281Z,4.10
2023-05-20T11:01:51.139Z,4.13
2023-05-20T11:04:19.765Z,4.45
2023-05-20T11:06:54.192Z,4.15
2023-05-20T11:11:53.498Z,3.55
2023-05-20T11:14:22.221Z,3.50
2023-05-20T11:16:54.301Z,3.70
2023-05-20T11:19:21.842Z,3.70
2023-05-20T11:21:49.553Z,3.40
2023-05-20T11:24:27.886Z,3.40
2023-05-20T11:27:00.676Z,4.07
2023-05-20T11:29:29.185Z,4.28
2023-05-20T11:31:56.739Z,4.38
2023-05-20T11:34:26.576Z,4.22
2023-05-20T11:36:58.786Z,3.90
2023-05-20T11:39:29.976Z,3.88
2023-05-20T11:41:58.546Z,4.03
2023-05-20T11:44:26.432Z,3.17
2023-05-20T11:47:01.238Z,4.93
2023-05-20T11:49:28.803Z,3.20
2023-05-20T11:51:57.798Z,3.92
2023-05-20T11:54:26.260Z,3.38
2023-05-20T11:56:56.081Z,3.20
2023-05-20T11:59:25.252Z,3.50
2023-05-20T12:01:52.819Z,3.05
2023-05-20T12:04:20.332Z,3.30
2023-05-20T12:06:47.764Z,3.60
2023-05-20T12:09:15.261Z,3.40
2023-05-20T12:11:44.589Z,3.13
2023-05-20T12:14:12.235Z,2.90
2023-05-20T12:16:39.721Z,3.20
2023-05-20T12:19:08.729Z,2.95
2023-05-20T12:21:36.537Z,2.80
2023-05-20T12:24:06.831Z,2.92
2023-05-20T12:26:35.562Z,3.10
2023-05-20T12:29:03.107Z,3.05
2023-05-20T12:31:32.391Z,2.72
2023-05-20T12:34:01.329Z,2.72
2023-05-20T12:36:28.900Z,2.45
2023-05-20T12:38:56.219Z,2.92
2023-05-20T12:41:23.573Z,2.58
2023-05-20T12:43:50.901Z,2.50
2023-05-20T12:46:19.094Z,2.50
2023-05-20T12:48:46.547Z,2.75
2023-05-20T12:51:13.844Z,2.63
2023-05-20T12:53:41.137Z,2.47
2023-05-20T12:56:08.544Z,2.35
2023-05-20T12:58:36.022Z,2.50
2023-05-20T13:01:03.426Z,2.33
2023-05-20T13:03:31.092Z,2.15
2023-05-20T13:05:59.468Z,2.38
2023-05-20T13:08:28.649Z,2.38
2023-05-20T13:10:56.366Z,2.58
2023-05-20T13:13:24.128Z,2.60
2023-05-20T13:15:51.880Z,2.10
2023-05-20T13:18:19.994Z,2.10
2023-05-20T13:20:47.307Z,2.60
2023-05-20T13:23:14.678Z,2.40
2023-05-20T13:25:42.076Z,2.83
2023-05-20T13:28:10.278Z,2.55
2023-05-20T13:30:37.922Z,2.47
2023-05-20T13:33:05.595Z,2.03
2023-05-20T13:35:33.971Z,2.40
2023-05-20T13:38:01.310Z,3.03
2023-05-20T13:40:28.754Z,2.47
2023-05-20T13:42:56.103Z,2.70
2023-05-20T13:45:23.617Z,2.70
2023-05-20T13:47:51.004Z,3.15
2023-05-20T13:50:18.467Z,2.50
2023-05-20T13:52:45.824Z,3.22
2023-05-20T13:55:13.199Z,2.83
2023-05-20T13:57:40.580Z,2.70
2023-05-20T14:00:09.298Z,4.63
2023-05-20T14:02:36.843Z,3.60
2023-05-20T14:05:04.659Z,3.42
2023-05-20T14:07:31.984Z,3.15
2023-05-20T14:09:59.322Z,3.28
2023-05-20T14:12:26.848Z,3.28
2023-05-20T14:14:54.178Z,3.53
2023-05-20T14:17:21.494Z,3.42
2023-05-20T14:19:48.811Z,3.33
2023-05-20T14:22:16.110Z,3.10
2023-05-20T14:24:43.500Z,3.33
2023-05-20T14:27:11.564Z,2.90
2023-05-20T14:29:38.854Z,3.28
2023-05-20T14:32:06.602Z,2.97
2023-05-20T14:34:34.010Z,3.30
2023-05-20T14:37:07.581Z,2.83
2023-05-20T14:39:35.042Z,3.07
2023-05-20T14:42:03.196Z,3.08
2023-05-20T14:44:31.081Z,2.78
2023-05-20T14:46:58.529Z,2.83
2023-05-20T14:49:25.863Z,2.65
2023-05-20T14:51:53.184Z,2.80
2023-05-20T14:54:24.943Z,2.72
2023-05-20T14:56:52.726Z,2.90
2023-05-20T14:59:20.206Z,3.03
2023-05-20T15:01:47.494Z,3.08
2023-05-20T15:04:14.849Z,2.50
2023-05-20T15:06:42.342Z,2.80
2023-05-20T15:09:10.173Z,2.80
2023-05-20T15:11:37.479Z,2.92
2023-05-20T15:14:04.797Z,2.85
2023-05-20T15:16:32.179Z,2.40
2023-05-20T15:18:59.741Z,2.83
2023-05-20T15:21:27.196Z,2.60
2023-05-20T15:23:54.570Z,2.78
2023-05-20T15:26:25.021Z,2.67
2023-05-20T15:28:52.328Z,2.90
2023-05-20T15:31:19.689Z,2.67
2023-05-20T15:33:47.321Z,2.22
2023-05-20T15:36:14.701Z,2.13
2023-05-20T15:38:44.013Z,2.35
2023-05-20T15:41:13.540Z,3.67
2023-05-20T15:43:40.989Z,4.22
2023-05-20T15:46:08.512Z,3.72
2023-05-20T15:48:37.764Z,4.28
2023-05-20T15:51:05.719Z,5.05
2023-05-20T15:53:33.313Z,4.53
2023-05-20T15:56:00.766Z,5.20
2023-05-20T15:58:28.143Z,5.40
2023-05-20T16:00:55.605Z,4.82
2023-05-20T16:03:23.076Z,4.70
2023-05-20T16:05:50.642Z,4.63
2023-05-20T16:08:18.049Z,4.45
2023-05-20T16:10:45.596Z,4.97
2023-05-20T16:13:12.933Z,4.47
2023-05-20T16:15:40.569Z,4.45
2023-05-20T16:18:08.017Z,4.45
2023-05-20T16:20:35.665Z,4.32
2023-05-20T16:23:03.154Z,4.07
2023-05-20T16:25:30.535Z,4.68
2023-05-20T16:28:00.928Z,4.22
2023-05-20T16:30:28.233Z,4.30
2023-05-20T16:32:55.758Z,3.72
2023-05-20T16:35:23.308Z,3.70
2023-05-20T16:37:50.649Z,4.85
2023-05-20T16:40:18.057Z,4.20
2023-05-20T16:42:45.510Z,4.00
2023-05-20T16:45:12.954Z,3.70
2023-05-20T16:47:40.275Z,4.10
2023-05-20T16:50:08.310Z,3.50
2023-05-20T16:52:37.837Z,3.90
2023-05-20T16:55:08.153Z,3.50
2023-05-20T16:57:35.801Z,3.70
2023-05-20T17:00:07.982Z,3.70
2023-05-20T17:02:35.594Z,3.33
2023-05-20T17:05:04.382Z,3.80
2023-05-20T17:07:33.411Z,3.53
2023-05-20T17:10:01.125Z,3.20
2023-05-20T17:12:28.609Z,3.80
2023-05-20T17:14:55.925Z,3.53
2023-05-20T17:17:23.292Z,3.70
2023-05-20T17:19:50.732Z,3.65
2023-05-20T17:22:18.112Z,3.28
2023-05-20T17:24:45.472Z,3.50
2023-05-20T17:27:12.811Z,4.15
2023-05-20T17:29:40.104Z,3.17
2023-05-20T17:32:07.725Z,3.40
2023-05-20T17:34:35.081Z,3.55
2023-05-20T17:37:02.427Z,3.80
2023-05-20T17:39:29.716Z,3.65
2023-05-20T17:41:57.120Z,3.38
2023-05-20T17:44:24.421Z,3.40
2023-05-20T17:46:51.918Z,3.50
2023-05-20T17:49:19.228Z,3.15
2023-05-20T17:51:46.602Z,3.45
2023-05-20T17:54:13.986Z,3.67
2023-05-20T17:56:43.370Z,3.38
2023-05-20T17:59:10.878Z,3.33
2023-05-20T18:01:38.931Z,4.18
2023-05-20T18:04:06.736Z,4.97
2023-05-20T18:06:34.743Z,4.95
2023-05-20T18:09:04.639Z,4.65
2023-05-20T18:11:33.077Z,4.30
2023-05-20T18:14:03.877Z,3.95
2023-05-20T18:16:31.631Z,4.63
2023-05-20T18:18:59.170Z,3.55
2023-05-20T18:21:26.759Z,3.40
2023-05-20T18:23:54.131Z,3.25
2023-05-20T18:26:21.659Z,3.00
2023-05-20T18:28:49.999Z,3.30
2023-05-20T18:31:17.424Z,3.10
2023-05-20T18:33:44.842Z,3.20
2023-05-20T18:36:12.179Z,2.95
2023-05-20T18:38:41.343Z,2.90
2023-05-20T18:41:09.242Z,3.50
2023-05-20T18:43:36.712Z,3.42
2023-05-20T18:46:04.539Z,3.15
2023-05-20T18:48:31.940Z,3.38
2023-05-20T18:50:59.384Z,3.42
2023-05-20T18:53:26.855Z,3.15
2023-05-20T18:55:54.300Z,3.20
2023-05-20T18:58:22.047Z,3.38
2023-05-20T19:00:49.403Z,4.10
2023-05-20T19:03:17.107Z,3.40
2023-05-20T19:05:44.560Z,3.78
2023-05-20T19:08:11.997Z,3.20
2023-05-20T19:10:39.459Z,2.80
2023-05-20T19:13:06.782Z,3.30
2023-05-20T19:15:34.380Z,3.08
2023-05-20T19:18:02.081Z,3.13
2023-05-20T19:20:29.374Z,2.97
2023-05-20T19:22:56.708Z,3.40
2023-05-20T19:25:24.015Z,3.30
2023-05-20T19:27:51.537Z,6.25
2023-05-20T19:30:18.899Z,6.38
2023-05-20T19:32:46.308Z,4.00
2023-05-20T19:35:13.662Z,3.53
2023-05-20T19:37:41.116Z,3.90
2023-05-20T19:40:09.179Z,3.03
2023-05-20T19:42:36.648Z,3.50
2023-05-20T19:45:04.274Z,3.47
2023-05-20T19:47:31.650Z,2.97
2023-05-20T19:49:59.027Z,3.13
2023-05-20T19:52:26.660Z,3.25
2023-05-20T19:54:54.054Z,3.35
2023-05-20T19:57:21.359Z,3.03
2023-05-20T19:59:49.208Z,3.35
2023-05-20T20:02:17.474Z,2.80
2023-05-20T20:04:44.901Z,2.92
2023-05-20T20:07:12.711Z,3.00
2023-05-20T20:09:40.137Z,3.47
2023-05-20T20:12:07.791Z,3.05
2023-05-20T20:14:35.089Z,2.95
2023-05-20T20:17:02.615Z,2.83
2023-05-20T20:19:30.149Z,2.80
2023-05-20T20:21:58.252Z,2.90
2023-05-20T20:24:26.100Z,3.50
2023-05-20T20:26:56.940Z,3.10
2023-05-20T20:29:24.439Z,3.50
2023-05-20T20:31:52.424Z,3.47
2023-05-20T20:34:19.852Z,3.40
2023-05-20T20:36:47.644Z,3.20
2023-05-20T20:39:19.205Z,2.80
2023-05-20T20:41:50.130Z,3.30
2023-05-20T20:44:21.063Z,3.33
2023-05-20T20:46:52.297Z,3.13
2023-05-20T20:49:21.119Z,3.70
2023-05-20T20:51:49.691Z,3.75
2023-05-20T20:54:17.368Z,3.30
2023-05-20T20:56:47.151Z,3.00
2023-05-20T20:59:15.788Z,3.00
2023-05-20T21:01:44.800Z,3.05
2023-05-20T21:04:13.679Z,3.35
2023-05-20T21:06:50.963Z,3.30
2023-05-20T21:09:18.284Z,2.92
2023-05-20T21:11:45.921Z,3.30
2023-05-20T21:14:13.539Z,3.22
2023-05-20T21:16:42.220Z,3.67
2023-05-20T21:19:09.781Z,2.85
2023-05-20T21:21:37.293Z,2.88
2023-05-20T21:24:04.776Z,3.10
2023-05-20T21:26:32.157Z,2.70
2023-05-20T21:28:59.510Z,2.75
2023-05-20T21:31:26.842Z,2.70
2023-05-20T21:33:54.219Z,2.90
2023-05-20T21:36:22.662Z,3.00
2023-05-20T21:38:50.026Z,3.03
2023-05-20T21:41:17.377Z,2.33
2023-05-20T21:43:44.692Z,2.92
2023-05-20T21:46:13.360Z,2.25
2023-05-20T21:48:40.770Z,2.83
2023-05-20T21:51:08.047Z,2.33
2023-05-20T21:53:35.424Z,2.80
2023-05-20T21:56:02.901Z,2.15
2023-05-20T21:58:30.673Z,2.58
2023-05-20T22:00:58.118Z,2.47
2023-05-20T22:03:25.793Z,2.40
2023-05-20T22:05:53.193Z,2.25
2023-05-20T22:08:20.587Z,2.22
2023-05-20T22:10:48.343Z,2.13
2023-05-20T22:13:15.752Z,2.38
2023-05-20T22:15:43.071Z,2.10
2023-05-20T22:18:12.245Z,2.50
2023-05-20T22:20:39.858Z,2.63
2023-05-20T22:23:07.170Z,1.88
2023-05-20T22:25:35.020Z,1.70
2023-05-20T22:28:04.597Z,1.92
2023-05-20T22:30:32.010Z,2.17
2023-05-20T22:32:59.423Z,2.45
2023-05-20T22:35:26.884Z,2.20
2023-05-20T22:37:54.868Z,1.98
2023-05-20T22:40:22.221Z,2.05
2023-05-20T22:42:49.556Z,1.98
2023-05-20T22:45:17.138Z,2.10
2023-05-20T22:47:47.627Z,1.80
2023-05-20T22:50:15.126Z,2.20
2023-05-20T22:52:42.685Z,1.75
2023-05-20T22:55:11.624Z,1.80
2023-05-20T22:57:39.121Z,2.35
2023-05-20T23:00:07.935Z,1.83
2023-05-20T23:02:35.299Z,1.70
2023-05-20T23:05:04.103Z,1.67
2023-05-20T23:07:31.969Z,1.80
2023-05-20T23:09:59.329Z,1.98
2023-05-20T23:12:26.769Z,1.85
2023-05-20T23:14:54.048Z,1.67
2023-05-20T23:17:21.488Z,2.00
2023-05-20T23:19:48.782Z,1.90
2023-05-20T23:22:16.410Z,1.92
2023-05-20T23:24:43.868Z,1.80
2023-05-20T23:27:11.201Z,1.80
2023-05-20T23:29:38.514Z,1.60
2023-05-20T23:32:06.140Z,1.60
2023-05-20T23:34:33.928Z,2.20
2023-05-20T23:37:01.242Z,1.60
2023-05-20T23:39:28.620Z,2.20
2023-05-20T23:41:55.957Z,1.65
2023-05-20T23:44:23.332Z,1.70
2023-05-20T23:46:51.081Z,1.85
2023-05-20T23:49:18.582Z,1.92
2023-05-20T23:51:46.033Z,1.75
2023-05-20T23:54:16.371Z,1.75
2023-05-20T23:56:44.116Z,1.55
2023-05-20T23:59:11.440Z,1.70
